Main page
METAR-TAF:

METAR-TAF

Airports :

Deauville – Normandie Airport

Deauville, France

latitude: 49-21-55N, longitude: 000-09-16E, elevation: 146 m

Current weather observation

The report was made 36 minutes ago, at 04:00 UTC
Wind 1 kt from the West/Southwest
Temperature 13°C
Humidity 100%
Pressure 1017 hPa
Visibility: 0550 m
Broken clouds at a height of 900 ft
patches of fog

METAR: LFRG 220400Z AUTO 24001KT 1000 0550 R30/1700N BCFG BKN009 13/13 Q1017

Time: 06:36 (04:36 UTC)

Forecast

The report was made 13 hours and 20 minutes ago, at 15:16 UTC
Forecast valid from 21 at 15 UTC to 21 at 24 UTC
Wind 7 kt from the Northwest
Visibility 10 km or more
Scattered clouds at a height of 2500 ft
Probability 30% :
Temporary
from 21 at 15 UTC to 21 at 17 UTC
Broken clouds at a height of 1000 ft

TAF: LFRG 211516Z 2115/2124 31007KT 9999 SCT025 PROB30 TEMPO 2115/2117 BKN010

Weather observations and forecasts of more than 4000 airports (METAR and TAF reports).

The available stations are represented by yellow and red dots on the map.

Hover mouse over dot to see the name of the station.

Then click to see weather observations and forecasts.

To change the map : click on the green buttons with a black cross to zoom in, on the green button with a dash to zoom out, or on the green arrows for adjacent maps.


METAR-TAF: